createdAt,value
2018-12-10T00:01:23.678Z,91.57
2018-12-10T00:03:54.027Z,90.22
2018-12-10T00:06:22.392Z,91.33
2018-12-10T00:08:51.015Z,92.45
2018-12-10T00:11:19.343Z,92.06
2018-12-10T00:13:47.686Z,91.70
2018-12-10T00:16:16.135Z,91.31
2018-12-10T00:18:44.507Z,90.68
2018-12-10T00:21:12.908Z,90.93
2018-12-10T00:23:41.263Z,90.76
2018-12-10T00:26:09.654Z,90.05
2018-12-10T00:28:38.061Z,91.12
2018-12-10T00:31:08.049Z,90.21
2018-12-10T00:33:37.188Z,90.17
2018-12-10T00:36:05.612Z,89.77
2018-12-10T00:38:33.907Z,88.66
2018-12-10T00:41:02.282Z,88.82
2018-12-10T00:43:30.670Z,87.86
2018-12-10T00:45:59.048Z,88.29
2018-12-10T00:48:27.391Z,89.23
2018-12-10T00:50:55.714Z,88.20
2018-12-10T00:53:24.073Z,89.59
2018-12-10T00:55:52.427Z,89.88
2018-12-10T00:58:21.105Z,89.68
2018-12-10T01:00:49.722Z,90.90
2018-12-10T01:03:18.267Z,92.43
2018-12-10T01:05:46.708Z,94.65
2018-12-10T01:08:17.055Z,95.82
2018-12-10T01:10:47.083Z,97.14
2018-12-10T01:13:15.427Z,98.74
2018-12-10T01:15:43.851Z,96.81
2018-12-10T01:18:12.178Z,95.99
2018-12-10T01:20:40.568Z,95.90
2018-12-10T01:23:09.100Z,95.65
2018-12-10T01:25:37.549Z,96.32
2018-12-10T01:28:06.004Z,96.25
2018-12-10T01:30:34.335Z,97.77
2018-12-10T01:33:02.822Z,96.63
2018-12-10T01:35:31.407Z,95.43
2018-12-10T01:37:59.820Z,93.87
2018-12-10T01:40:28.201Z,93.94
2018-12-10T01:42:56.577Z,94.41
2018-12-10T01:45:24.971Z,94.07
2018-12-10T01:47:53.510Z,93.51
2018-12-10T01:50:21.977Z,93.52
2018-12-10T01:52:50.279Z,90.37
2018-12-10T01:55:18.624Z,90.01
2018-12-10T01:57:47.879Z,90.14
2018-12-10T02:00:16.429Z,90.44
2018-12-10T02:02:44.819Z,91.02
2018-12-10T02:05:13.169Z,91.45
2018-12-10T02:07:42.154Z,91.71
2018-12-10T02:10:10.667Z,90.20
2018-12-10T02:12:39.865Z,90.56
2018-12-10T02:15:08.273Z,90.85
2018-12-10T02:17:36.754Z,89.61
2018-12-10T02:20:05.303Z,89.96
2018-12-10T02:22:33.650Z,91.59
2018-12-10T02:25:01.977Z,90.50
2018-12-10T02:27:30.306Z,89.22
2018-12-10T02:29:58.897Z,88.99
2018-12-10T02:32:27.475Z,90.10
2018-12-10T02:34:55.905Z,88.00
2018-12-10T02:37:24.916Z,88.43
2018-12-10T02:39:53.570Z,88.39
2018-12-10T02:42:21.993Z,87.94
2018-12-10T02:44:50.607Z,88.38
2018-12-10T02:47:19.142Z,86.48
2018-12-10T02:49:47.567Z,86.15
2018-12-10T02:52:16.035Z,87.38
2018-12-10T02:54:44.435Z,88.06
2018-12-10T02:57:12.921Z,87.87
2018-12-10T02:59:41.398Z,88.23
2018-12-10T03:02:09.865Z,87.87
2018-12-10T03:04:38.395Z,88.48
2018-12-10T03:07:06.934Z,88.45
2018-12-10T03:09:35.237Z,89.07
2018-12-10T03:12:03.611Z,89.48
2018-12-10T03:14:32.245Z,88.80
2018-12-10T03:17:00.914Z,91.16
2018-12-10T03:19:29.242Z,92.92
2018-12-10T03:21:58.412Z,94.50
2018-12-10T03:24:27.010Z,96.15
2018-12-10T03:26:55.349Z,96.87
2018-12-10T03:29:23.761Z,97.62
2018-12-10T03:31:52.272Z,97.13
2018-12-10T03:34:20.695Z,97.59
2018-12-10T03:36:49.072Z,100.00
2018-12-10T03:39:17.458Z,100.00
2018-12-10T03:41:45.834Z,100.00
2018-12-10T03:44:14.220Z,100.00
2018-12-10T03:46:42.589Z,100.00
2018-12-10T03:49:11.172Z,100.00
2018-12-10T03:51:39.860Z,100.00
2018-12-10T03:54:08.279Z,100.00
2018-12-10T03:56:36.613Z,100.00
2018-12-10T03:59:05.005Z,100.00
2018-12-10T04:01:33.326Z,100.00
2018-12-10T04:04:01.651Z,100.00
2018-12-10T04:06:30.044Z,100.00
2018-12-10T04:08:58.473Z,100.00
2018-12-10T04:11:26.818Z,100.00
2018-12-10T04:13:55.349Z,100.00
2018-12-10T04:16:23.868Z,100.00
2018-12-10T04:18:52.344Z,100.00
2018-12-10T04:21:20.685Z,100.00
2018-12-10T04:23:49.308Z,100.00
2018-12-10T04:26:17.995Z,100.00
2018-12-10T04:28:46.397Z,100.00
2018-12-10T04:31:14.735Z,100.00
2018-12-10T04:33:43.095Z,100.00
2018-12-10T04:36:11.433Z,100.00
2018-12-10T04:38:39.891Z,100.00
2018-12-10T04:41:08.226Z,100.00
2018-12-10T04:43:36.966Z,100.00
2018-12-10T04:46:15.029Z,100.00
2018-12-10T04:48:43.441Z,100.00
2018-12-10T04:51:11.779Z,100.00
2018-12-10T04:53:40.125Z,100.00
2018-12-10T04:56:08.476Z,100.00
2018-12-10T04:58:37.222Z,100.00
2018-12-10T05:01:06.058Z,100.00
2018-12-10T05:03:34.399Z,100.00
2018-12-10T05:06:02.715Z,100.00
2018-12-10T05:08:31.243Z,100.00
2018-12-10T05:10:59.618Z,100.00
2018-12-10T05:13:27.980Z,99.94
2018-12-10T05:15:56.304Z,99.75
2018-12-10T05:18:24.683Z,100.00
2018-12-10T05:20:53.098Z,99.69
2018-12-10T05:23:21.449Z,99.17
2018-12-10T05:25:54.376Z,99.20
2018-12-10T05:28:22.902Z,99.20
2018-12-10T05:30:51.262Z,98.77
2018-12-10T05:33:19.605Z,98.74
2018-12-10T05:35:47.943Z,98.15
2018-12-10T05:38:16.276Z,98.67
2018-12-10T05:40:44.624Z,98.61
2018-12-10T05:43:13.515Z,98.92
2018-12-10T05:45:41.912Z,99.68
2018-12-10T05:48:10.294Z,99.46
2018-12-10T05:50:38.728Z,99.93
2018-12-10T05:53:07.052Z,99.19
2018-12-10T05:55:35.391Z,99.87
2018-12-10T05:58:03.740Z,98.62
2018-12-10T06:00:32.117Z,96.85
2018-12-10T06:03:01.488Z,95.43
2018-12-10T06:05:30.480Z,96.45
2018-12-10T06:07:58.864Z,96.25
2018-12-10T06:10:27.204Z,96.02
2018-12-10T06:12:55.520Z,95.53
2018-12-10T06:15:23.853Z,96.70
2018-12-10T06:17:52.438Z,98.15
2018-12-10T06:20:20.862Z,98.54
2018-12-10T06:22:49.252Z,99.20
2018-12-10T06:25:17.618Z,99.88
2018-12-10T06:27:46.003Z,100.00
2018-12-10T06:30:14.344Z,99.89
2018-12-10T06:32:42.763Z,99.83
2018-12-10T06:35:11.148Z,100.00
2018-12-10T06:40:36.422Z,100.00
2018-12-10T06:43:04.833Z,100.00
2018-12-10T06:45:33.208Z,100.00
2018-12-10T06:50:57.417Z,100.00
2018-12-10T06:53:25.751Z,100.00
2018-12-10T06:55:54.071Z,100.00
2018-12-10T06:58:23.899Z,100.00
2018-12-10T07:00:52.497Z,100.00
2018-12-10T07:03:20.894Z,100.00
2018-12-10T07:05:49.277Z,99.88
2018-12-10T07:11:13.784Z,100.00
2018-12-10T07:13:42.437Z,100.00
2018-12-10T07:16:10.958Z,100.00
2018-12-10T07:18:39.236Z,100.00
2018-12-10T07:21:07.673Z,100.00
2018-12-10T07:23:36.064Z,100.00
2018-12-10T07:26:04.433Z,100.00
2018-12-10T07:28:32.873Z,100.00
2018-12-10T07:31:01.244Z,100.00
2018-12-10T07:33:29.585Z,100.00
2018-12-10T07:35:57.975Z,100.00
2018-12-10T07:38:26.322Z,100.00
2018-12-10T07:40:54.731Z,100.00
2018-12-10T07:43:23.112Z,100.00
2018-12-10T07:45:51.511Z,100.00
2018-12-10T07:48:19.868Z,100.00
2018-12-10T07:50:49.535Z,100.00
2018-12-10T07:53:17.963Z,100.00
2018-12-10T07:55:46.550Z,100.00
2018-12-10T07:58:14.878Z,99.36
2018-12-10T08:00:43.229Z,99.42
2018-12-10T08:03:11.687Z,99.11
2018-12-10T08:05:40.054Z,98.88
2018-12-10T08:08:08.498Z,99.14
2018-12-10T08:10:36.840Z,97.69
2018-12-10T08:13:05.408Z,96.33
2018-12-10T08:15:33.765Z,95.66
2018-12-10T08:18:02.253Z,95.55
2018-12-10T08:20:31.041Z,96.19
2018-12-10T08:22:59.403Z,95.79
2018-12-10T08:25:27.809Z,95.67
2018-12-10T08:27:56.181Z,95.81
2018-12-10T08:30:24.581Z,95.05
2018-12-10T08:32:53.057Z,93.23
2018-12-10T08:35:21.394Z,94.57
2018-12-10T08:37:49.730Z,92.95
2018-12-10T08:40:18.321Z,93.71
2018-12-10T08:42:47.138Z,92.73
2018-12-10T08:45:15.524Z,92.21
2018-12-10T08:47:43.941Z,93.39
2018-12-10T08:50:12.330Z,94.85
2018-12-10T08:52:40.699Z,95.95
2018-12-10T08:55:09.581Z,96.86
2018-12-10T08:57:38.164Z,96.06
2018-12-10T09:00:07.562Z,96.25
2018-12-10T09:02:35.988Z,96.40
2018-12-10T09:05:05.011Z,96.25
2018-12-10T09:07:34.406Z,94.73
2018-12-10T09:10:03.553Z,96.09
2018-12-10T09:12:32.045Z,95.89
2018-12-10T09:15:00.418Z,95.73
2018-12-10T09:17:28.761Z,95.56
2018-12-10T09:19:57.142Z,95.86
2018-12-10T09:22:25.467Z,94.57
2018-12-10T09:24:53.845Z,94.84
2018-12-10T09:27:22.159Z,94.48
2018-12-10T09:29:51.327Z,94.20
2018-12-10T09:32:21.316Z,94.89
2018-12-10T09:34:49.806Z,93.88
2018-12-10T09:37:18.205Z,93.33
2018-12-10T09:39:46.527Z,93.82
2018-12-10T09:42:14.902Z,93.51
2018-12-10T09:44:43.235Z,93.99
2018-12-10T09:47:11.585Z,94.16
2018-12-10T09:49:40.020Z,91.35
2018-12-10T09:52:08.368Z,89.27
2018-12-10T09:54:36.776Z,89.44
2018-12-10T09:57:05.102Z,89.37
2018-12-10T09:59:33.507Z,89.66
2018-12-10T10:02:02.110Z,89.75
2018-12-10T10:04:30.763Z,91.33
2018-12-10T10:07:00.883Z,90.17
2018-12-10T10:09:29.270Z,90.33
2018-12-10T10:11:57.652Z,90.66
2018-12-10T10:14:26.083Z,90.52
2018-12-10T10:16:54.523Z,90.69
2018-12-10T10:19:22.872Z,90.65
2018-12-10T10:21:51.277Z,91.96
2018-12-10T10:24:19.609Z,89.02
2018-12-10T10:26:47.992Z,87.75
2018-12-10T10:29:16.319Z,89.29
2018-12-10T10:31:44.793Z,85.57
2018-12-10T10:34:13.195Z,84.86
2018-12-10T10:36:41.757Z,85.71
2018-12-10T10:39:10.329Z,83.50
2018-12-10T10:41:39.221Z,80.95
2018-12-10T10:44:07.603Z,77.24
2018-12-10T10:46:35.936Z,77.80
2018-12-10T10:49:04.329Z,74.19
2018-12-10T10:51:32.679Z,74.27
2018-12-10T10:54:01.076Z,72.58
2018-12-10T10:56:29.585Z,72.89
2018-12-10T10:58:57.937Z,70.51
2018-12-10T11:01:31.807Z,70.79
2018-12-10T11:04:00.138Z,68.55
2018-12-10T11:06:28.699Z,66.53
2018-12-10T11:08:57.044Z,67.40
2018-12-10T11:11:25.438Z,67.30
2018-12-10T11:13:54.914Z,65.69
2018-12-10T11:16:23.701Z,62.26
2018-12-10T11:18:52.094Z,64.92
2018-12-10T11:21:21.154Z,66.34
2018-12-10T11:23:49.466Z,69.08
2018-12-10T11:26:17.804Z,74.79
2018-12-10T11:28:46.137Z,76.54
2018-12-10T11:31:17.306Z,80.51
2018-12-10T11:33:44.932Z,81.54
2018-12-10T11:36:13.275Z,83.53
2018-12-10T11:38:41.693Z,86.35
2018-12-10T11:41:10.080Z,88.73
2018-12-10T11:43:38.428Z,90.31
2018-12-10T11:46:06.778Z,90.82
2018-12-10T11:48:36.119Z,91.96
2018-12-10T11:51:04.702Z,91.92
2018-12-10T11:53:33.060Z,92.18
2018-12-10T11:56:03.309Z,91.04
2018-12-10T11:58:31.693Z,91.18
2018-12-10T12:01:00.125Z,91.96
2018-12-10T12:03:28.563Z,92.49
2018-12-10T12:05:56.916Z,92.89
2018-12-10T12:08:25.323Z,93.23
2018-12-10T12:10:53.697Z,93.03
2018-12-10T12:13:22.042Z,93.86
2018-12-10T12:15:50.489Z,93.76
2018-12-10T12:18:18.816Z,93.06
2018-12-10T12:20:47.213Z,92.29
2018-12-10T12:23:15.993Z,90.27
2018-12-10T12:25:44.677Z,88.12
2018-12-10T12:28:12.980Z,82.94
2018-12-10T12:30:41.432Z,79.66
2018-12-10T12:33:09.874Z,80.73
2018-12-10T12:35:39.034Z,79.77
2018-12-10T12:38:07.598Z,83.10
2018-12-10T12:40:35.956Z,82.57
2018-12-10T12:43:08.520Z,82.56
2018-12-10T12:45:34.713Z,82.20
2018-12-10T12:48:03.113Z,82.68
2018-12-10T12:50:31.748Z,82.05
2018-12-10T12:53:00.143Z,80.17
2018-12-10T12:55:28.527Z,81.86
2018-12-10T12:57:57.299Z,81.44
2018-12-10T13:00:27.131Z,82.75
2018-12-10T13:02:55.988Z,80.48
2018-12-10T13:05:24.395Z,80.02
2018-12-10T13:07:52.723Z,80.03
2018-12-10T13:10:21.062Z,80.13
2018-12-10T13:12:49.537Z,80.70
2018-12-10T13:15:17.949Z,80.24
2018-12-10T13:17:46.289Z,79.67
2018-12-10T13:20:14.621Z,80.23
2018-12-10T13:22:47.232Z,79.73
2018-12-10T13:25:13.384Z,79.63
2018-12-10T13:27:41.755Z,80.08
2018-12-10T13:30:10.094Z,80.39
2018-12-10T13:32:39.004Z,80.22
2018-12-10T13:35:07.683Z,80.08
2018-12-10T13:37:36.015Z,78.53
2018-12-10T13:40:06.055Z,77.77
2018-12-10T13:42:34.506Z,77.28
2018-12-10T13:45:03.611Z,77.81
2018-12-10T13:47:31.940Z,78.00
2018-12-10T13:50:00.257Z,78.65
2018-12-10T13:52:28.704Z,77.62
2018-12-10T13:54:56.984Z,78.44
2018-12-10T13:57:25.340Z,77.33
2018-12-10T13:59:53.661Z,77.43
2018-12-10T14:02:22.011Z,77.09
2018-12-10T14:04:51.152Z,76.68
2018-12-10T14:07:20.428Z,77.90
2018-12-10T14:09:48.780Z,78.43
2018-12-10T14:12:17.110Z,78.45
2018-12-10T14:14:45.656Z,77.13
2018-12-10T14:17:14.032Z,77.50
2018-12-10T14:19:42.351Z,76.31
2018-12-10T14:22:10.786Z,78.15
2018-12-10T14:24:39.118Z,77.15
2018-12-10T14:27:07.488Z,78.66
2018-12-10T14:29:35.819Z,76.71
2018-12-10T14:32:04.381Z,77.50
2018-12-10T14:34:32.786Z,77.50
2018-12-10T14:37:01.142Z,77.28
2018-12-10T14:39:29.972Z,77.61
2018-12-10T14:41:58.462Z,77.81
2018-12-10T14:44:27.370Z,77.95
2018-12-10T14:46:56.048Z,78.28
2018-12-10T14:49:24.499Z,77.95
2018-12-10T14:51:53.059Z,78.45
2018-12-10T14:54:21.385Z,78.46
2018-12-10T14:56:49.835Z,79.09
2018-12-10T14:59:18.269Z,79.32
2018-12-10T15:01:46.709Z,80.23
2018-12-10T15:04:16.357Z,80.72
2018-12-10T15:06:44.695Z,83.79
2018-12-10T15:09:13.222Z,85.24
2018-12-10T15:11:41.535Z,87.85
2018-12-10T15:14:10.051Z,88.90
2018-12-10T15:16:38.765Z,89.44
2018-12-10T15:19:07.074Z,88.73
2018-12-10T15:21:35.403Z,88.99
2018-12-10T15:24:03.750Z,88.59
2018-12-10T15:26:32.096Z,88.83
2018-12-10T15:29:00.410Z,88.26
2018-12-10T15:31:32.657Z,87.64
2018-12-10T15:34:03.113Z,86.89
2018-12-10T15:36:31.480Z,86.29
2018-12-10T15:38:59.859Z,85.81
2018-12-10T15:41:28.456Z,85.04
2018-12-10T15:43:56.835Z,85.53
2018-12-10T15:46:25.166Z,84.72
2018-12-10T15:48:53.845Z,83.55
2018-12-10T15:51:22.246Z,83.20
2018-12-10T15:53:50.553Z,83.65
2018-12-10T15:56:18.953Z,83.06
2018-12-10T15:58:47.411Z,82.47
2018-12-10T16:01:15.932Z,82.10
2018-12-10T16:03:44.304Z,81.22
2018-12-10T16:06:12.681Z,82.09
2018-12-10T16:08:41.031Z,81.83
2018-12-10T16:11:09.377Z,84.09
2018-12-10T16:13:37.794Z,84.54
2018-12-10T16:16:06.124Z,84.10
2018-12-10T16:18:34.679Z,84.87
2018-12-10T16:21:03.292Z,84.88
2018-12-10T16:23:31.747Z,84.86
2018-12-10T16:26:00.328Z,85.25
2018-12-10T16:28:28.847Z,85.58
2018-12-10T16:30:57.532Z,85.36
2018-12-10T16:33:26.013Z,85.91
2018-12-10T16:35:54.628Z,86.54
2018-12-10T16:38:23.076Z,85.69
2018-12-10T16:40:51.365Z,85.90
2018-12-10T16:43:19.776Z,85.64
2018-12-10T16:45:48.110Z,86.73
2018-12-10T16:48:16.536Z,87.05
2018-12-10T16:50:45.632Z,87.79
2018-12-10T16:53:14.042Z,85.80
2018-12-10T16:55:42.426Z,85.46
2018-12-10T16:58:11.033Z,86.13
2018-12-10T17:00:39.377Z,87.13
2018-12-10T17:03:07.771Z,86.25
2018-12-10T17:05:36.176Z,86.93
2018-12-10T17:08:04.512Z,86.36
2018-12-10T17:10:32.932Z,86.14
2018-12-10T17:13:01.364Z,86.45
2018-12-10T17:15:29.693Z,86.80
2018-12-10T17:17:58.134Z,85.78
2018-12-10T17:20:27.808Z,85.75
2018-12-10T17:22:56.130Z,85.62
2018-12-10T17:25:24.575Z,85.62
2018-12-10T17:27:53.170Z,84.61
2018-12-10T17:30:22.232Z,85.75
2018-12-10T17:32:50.651Z,85.91
2018-12-10T17:35:19.080Z,85.27
2018-12-10T17:37:49.732Z,85.86
2018-12-10T17:40:18.754Z,88.18
2018-12-10T17:42:47.291Z,87.78
2018-12-10T17:45:16.658Z,90.23
2018-12-10T17:47:47.017Z,90.28
2018-12-10T17:50:15.850Z,91.12
2018-12-10T17:52:44.962Z,91.35
2018-12-10T17:55:13.478Z,91.80
2018-12-10T17:57:41.842Z,92.04
2018-12-10T18:00:10.515Z,91.39
2018-12-10T18:02:39.252Z,91.83
2018-12-10T18:05:07.606Z,92.43
2018-12-10T18:07:36.891Z,92.77
2018-12-10T18:10:06.216Z,93.03
2018-12-10T18:12:34.580Z,92.78
2018-12-10T18:15:03.145Z,93.92
2018-12-10T18:17:31.521Z,95.45
2018-12-10T18:19:59.867Z,95.66
2018-12-10T18:22:28.550Z,96.12
2018-12-10T18:24:56.969Z,96.20
2018-12-10T18:27:39.254Z,96.10
2018-12-10T18:30:09.111Z,96.70
2018-12-10T18:32:38.474Z,96.39
2018-12-10T18:35:07.739Z,96.70
2018-12-10T18:37:45.573Z,97.02
2018-12-10T18:40:15.945Z,96.82
2018-12-10T18:42:46.954Z,96.34
2018-12-10T18:45:15.878Z,97.14
2018-12-10T18:47:44.372Z,96.76
2018-12-10T18:50:12.930Z,96.24
2018-12-10T18:52:41.269Z,97.24
2018-12-10T18:55:09.629Z,98.67
2018-12-10T18:57:37.963Z,98.98
2018-12-10T19:00:09.921Z,99.11
2018-12-10T19:02:38.500Z,99.76
2018-12-10T19:05:07.274Z,99.67
2018-12-10T19:07:35.628Z,100.00
2018-12-10T19:10:05.203Z,99.65
2018-12-10T19:12:33.833Z,99.97
2018-12-10T19:15:02.449Z,99.76
2018-12-10T19:17:30.804Z,100.00
2018-12-10T19:19:59.174Z,100.00
2018-12-10T19:22:27.635Z,100.00
2018-12-10T19:24:56.019Z,100.00
2018-12-10T19:27:24.529Z,100.00
2018-12-10T19:29:52.922Z,99.50
2018-12-10T19:32:21.471Z,100.00
2018-12-10T19:34:49.893Z,99.98
2018-12-10T19:37:18.278Z,100.00
2018-12-10T19:39:46.617Z,100.00
2018-12-10T19:42:14.961Z,100.00
2018-12-10T19:44:43.841Z,100.00
2018-12-10T19:47:12.324Z,100.00
2018-12-10T19:49:41.073Z,100.00
2018-12-10T19:52:09.440Z,99.32
2018-12-10T19:54:38.054Z,97.88
2018-12-10T19:57:06.415Z,98.30
2018-12-10T19:59:34.919Z,98.15
2018-12-10T20:02:03.700Z,97.70
2018-12-10T20:04:32.089Z,97.23
2018-12-10T20:07:05.638Z,97.01
2018-12-10T20:09:34.886Z,97.34
2018-12-10T20:12:03.390Z,96.99
2018-12-10T20:14:31.767Z,97.01
2018-12-10T20:17:00.087Z,97.51
2018-12-10T20:19:28.567Z,97.80
2018-12-10T20:21:57.247Z,98.96
2018-12-10T20:24:25.903Z,99.83
2018-12-10T20:26:54.629Z,100.00
2018-12-10T20:29:23.055Z,100.00
2018-12-10T20:31:51.421Z,100.00
2018-12-10T20:34:19.792Z,100.00
2018-12-10T20:36:48.399Z,100.00
2018-12-10T20:39:16.787Z,100.00
2018-12-10T20:41:45.166Z,100.00
2018-12-10T20:44:13.513Z,100.00
2018-12-10T20:46:41.855Z,100.00
2018-12-10T20:49:10.239Z,100.00
2018-12-10T20:51:38.585Z,100.00
2018-12-10T20:54:06.948Z,100.00
2018-12-10T20:56:35.552Z,100.00
2018-12-10T20:59:03.908Z,100.00
2018-12-10T21:01:32.453Z,100.00
2018-12-10T21:04:00.766Z,100.00
2018-12-10T21:06:35.395Z,100.00
2018-12-10T21:09:05.656Z,100.00
2018-12-10T21:11:34.313Z,100.00
2018-12-10T21:14:02.719Z,100.00
2018-12-10T21:16:31.112Z,100.00
2018-12-10T21:18:59.465Z,100.00
2018-12-10T21:21:27.865Z,99.84
2018-12-10T21:23:56.345Z,100.00
2018-12-10T21:26:24.717Z,100.00
2018-12-10T21:28:53.253Z,100.00
2018-12-10T21:31:21.606Z,99.60
2018-12-10T21:33:50.045Z,99.55
2018-12-10T21:36:18.446Z,99.79
2018-12-10T21:38:46.782Z,98.81
2018-12-10T21:41:15.135Z,100.00
2018-12-10T21:43:43.510Z,100.00
2018-12-10T21:46:11.831Z,100.00
2018-12-10T21:48:40.251Z,100.00
2018-12-10T21:51:08.593Z,99.98
2018-12-10T21:53:36.949Z,99.91
2018-12-10T21:56:05.477Z,99.79
2018-12-10T21:58:33.813Z,99.48
2018-12-10T22:01:02.532Z,99.60
2018-12-10T22:03:30.948Z,100.00
2018-12-10T22:05:59.322Z,98.71
2018-12-10T22:08:27.904Z,98.11
2018-12-10T22:10:56.561Z,98.59
2018-12-10T22:13:24.966Z,98.08
2018-12-10T22:15:53.340Z,96.88
2018-12-10T22:18:21.668Z,95.80
2018-12-10T22:20:50.115Z,96.19
2018-12-10T22:23:18.535Z,96.48
2018-12-10T22:25:46.859Z,96.56
2018-12-10T22:28:15.247Z,96.53
2018-12-10T22:30:43.700Z,96.08
2018-12-10T22:33:12.389Z,96.53
2018-12-10T22:35:41.467Z,97.76
2018-12-10T22:38:09.787Z,97.88
2018-12-10T22:40:38.123Z,99.60
2018-12-10T22:43:06.581Z,99.67
2018-12-10T22:45:34.911Z,99.29
2018-12-10T22:48:03.257Z,99.74
2018-12-10T22:50:31.618Z,100.00
2018-12-10T22:53:00.045Z,100.00
2018-12-10T22:55:28.501Z,100.00
2018-12-10T22:57:56.917Z,100.00
2018-12-10T23:00:27.193Z,100.00
2018-12-10T23:02:55.587Z,100.00
2018-12-10T23:05:24.035Z,100.00
2018-12-10T23:07:53.492Z,100.00
2018-12-10T23:10:22.077Z,100.00
2018-12-10T23:12:50.472Z,100.00
2018-12-10T23:15:18.848Z,99.97
2018-12-10T23:17:47.172Z,99.97
2018-12-10T23:20:15.956Z,100.00
2018-12-10T23:22:44.403Z,100.00
2018-12-10T23:25:12.802Z,100.00
2018-12-10T23:27:41.119Z,100.00
2018-12-10T23:30:09.897Z,100.00
2018-12-10T23:32:38.509Z,100.00
2018-12-10T23:35:06.910Z,100.00
2018-12-10T23:37:35.290Z,100.00
2018-12-10T23:40:04.708Z,100.00
2018-12-10T23:42:33.059Z,100.00
2018-12-10T23:45:01.643Z,100.00
2018-12-10T23:47:30.225Z,100.00
2018-12-10T23:49:58.564Z,100.00
2018-12-10T23:52:26.932Z,100.00
2018-12-10T23:54:55.294Z,100.00
2018-12-10T23:57:23.668Z,100.00
2018-12-10T23:59:52.759Z,100.00
